Time;durP1;ratioP1;P1;durP2;ratioP2;P2;SDS_P1;SDS_P2;PMS_P1;PMS_P2;Temp;Humidity;BMP_temperature;BMP_pressure;BME280_temperature;BME280_humidity;BME280_pressure;Samples;Min_cycle;Max_cycle;Signal;HPM_P1;HPM_P2
2021/12/16 00:09:10;;;;;;;;;;;;;;;2.47;85.14;99816.75;4991967;28;20340;-71
2021/12/16 00:33:16;;;;;;;;;;;;;;;2.38;86.14;99829.34;5011778;28;19940;-71
2021/12/16 00:35:43;;;;;;;;;;;;;;;2.39;86.28;99827.50;5011440;28;19925;-71
2021/12/16 00:38:09;;;;;;;;;;;;;;;2.42;86.18;99834.19;5011620;28;19913;-71
2021/12/16 00:40:39;;;;;;;;;;;;;;;2.43;86.30;99833.19;4996955;28;19917;-70
2021/12/16 00:43:19;;;;;;;;;;;;;;;2.46;85.86;99838.88;4992215;28;19913;-71
2021/12/16 00:55:58;;;;;;;;;;;;;;;2.59;85.47;99824.88;5000118;28;19924;-71
2021/12/16 00:58:35;;;;;;;;;;;;;;;2.61;85.55;99827.31;4995478;28;19918;-71
2021/12/16 01:33:59;;;;;;;;;;;;;;;2.77;83.33;99821.59;4992539;28;19954;-72
2021/12/16 01:57:12;;;;;;;;;;;;;;;2.98;82.40;99796.78;5008810;28;19920;-74
2021/12/16 01:59:40;;;;;;;;;;;;;;;3.00;81.96;99792.09;4993407;28;19918;-76
2021/12/16 02:03:08;;;;;;;;;;;;;;;2.99;81.73;99789.63;4977687;28;20364;-72
2021/12/16 02:10:30;;;;;;;;;;;;;;;2.99;81.72;99790.47;4995729;28;20388;-75
2021/12/16 02:29:29;;;;;;;;;;;;;;;3.01;80.92;99791.06;4994251;28;19921;-74
2021/12/16 02:34:44;;;;;;;;;;;;;;;3.01;80.79;99793.69;4994397;28;19913;-73
2021/12/16 02:37:16;;;;;;;;;;;;;;;3.02;80.73;99789.25;4994512;28;19913;-72
2021/12/16 02:39:42;;;;;;;;;;;;;;;3.02;80.75;99778.66;4995968;28;19993;-72
2021/12/16 02:42:13;;;;;;;;;;;;;;;3.03;80.54;99780.28;5010875;28;19925;-73
2021/12/16 02:50:07;;;;;;;;;;;;;;;2.97;79.80;99781.94;4994277;28;19921;-74
2021/12/16 02:52:33;;;;;;;;;;;;;;;2.96;79.65;99779.50;4994140;28;20336;-72
2021/12/16 02:54:58;;;;;;;;;;;;;;;2.94;79.72;99777.06;4976103;28;19957;-70
2021/12/16 02:57:24;;;;;;;;;;;;;;;2.90;79.27;99767.91;4993918;28;19984;-71
2021/12/16 02:59:52;;;;;;;;;;;;;;;2.85;79.47;99773.03;4993713;28;19924;-72
2021/12/16 03:02:18;;;;;;;;;;;;;;;2.85;79.32;99775.66;4993630;28;19964;-70
2021/12/16 03:04:45;;;;;;;;;;;;;;;2.84;79.39;99769.56;4993715;28;19987;-75
2021/12/16 03:07:12;;;;;;;;;;;;;;;2.81;79.35;99782.38;4976183;28;19928;-75
2021/12/16 03:14:49;;;;;;;;;;;;;;;2.80;79.07;99771.00;4993498;28;19914;-71
2021/12/16 03:19:55;;;;;;;;;;;;;;;2.81;79.10;99771.81;4994671;28;20304;-71
2021/12/16 03:22:46;;;;;;;;;;;;;;;2.80;78.94;99775.47;4993326;28;19922;-72
2021/12/16 03:25:22;;;;;;;;;;;;;;;2.79;78.85;99774.66;4993109;28;19913;-72
2021/12/16 03:31:03;;;;;;;;;;;;;;;2.78;78.80;99782.78;5012952;28;20361;-72
2021/12/16 03:38:27;;;;;;;;;;;;;;;2.78;78.95;99782.78;4980815;28;20300;-74
2021/12/16 03:40:52;;;;;;;;;;;;;;;2.78;79.06;99786.22;4992655;28;19913;-74
2021/12/16 03:43:19;;;;;;;;;;;;;;;2.75;78.61;99789.28;4993387;28;19914;-73
2021/12/16 03:48:45;;;;;;;;;;;;;;;2.69;78.62;99785.63;4992967;28;19925;-71
2021/12/16 03:51:13;;;;;;;;;;;;;;;2.66;78.44;99778.16;4992948;28;19921;-70
2021/12/16 03:53:42;;;;;;;;;;;;;;;2.67;78.33;99782.41;4992865;28;20293;-71
2021/12/16 03:56:08;;;;;;;;;;;;;;;2.67;78.11;99777.13;5001650;28;19967;-73
2021/12/16 03:58:33;;;;;;;;;;;;;;;2.65;77.56;99773.88;4989738;28;19921;-73
2021/12/16 04:01:01;;;;;;;;;;;;;;;2.64;77.88;99776.72;4992952;28;20399;-71
2021/12/16 04:03:27;;;;;;;;;;;;;;;2.65;78.07;99783.59;4993084;28;19914;-72
2021/12/16 04:05:52;;;;;;;;;;;;;;;2.66;78.26;99786.06;4992195;28;19998;-73
2021/12/16 04:08:18;;;;;;;;;;;;;;;2.66;77.80;99785.25;4992649;28;19914;-71
2021/12/16 04:10:52;;;;;;;;;;;;;;;2.66;78.40;99783.44;4992434;28;19917;-71
2021/12/16 04:13:18;;;;;;;;;;;;;;;2.65;78.09;99787.09;4977334;28;19918;-71
2021/12/16 04:15:45;;;;;;;;;;;;;;;2.68;78.25;99784.00;4997392;28;19922;-73
2021/12/16 04:18:10;;;;;;;;;;;;;;;2.69;78.06;99792.75;4991568;28;19932;-73
2021/12/16 04:20:36;;;;;;;;;;;;;;;2.68;77.52;99784.00;4992222;28;19918;-73
2021/12/16 04:23:02;;;;;;;;;;;;;;;2.67;78.34;99792.97;4992255;28;19913;-69
2021/12/16 04:25:30;;;;;;;;;;;;;;;2.67;77.95;99798.25;4975029;28;20362;-71
2021/12/16 04:27:57;;;;;;;;;;;;;;;2.63;77.46;99804.94;5006997;28;20415;-70
2021/12/16 04:30:24;;;;;;;;;;;;;;;2.63;77.90;99807.59;5011972;28;19914;-72
2021/12/16 04:32:50;;;;;;;;;;;;;;;2.64;77.46;99797.84;5011449;28;19913;-71
2021/12/16 04:35:16;;;;;;;;;;;;;;;2.61;77.78;99806.19;4986768;28;20054;-71
2021/12/16 04:37:41;;;;;;;;;;;;;;;2.60;77.89;99801.91;4991211;28;19928;-71
2021/12/16 04:40:09;;;;;;;;;;;;;;;2.60;78.21;99810.66;5011535;28;19913;-71
2021/12/16 04:42:36;;;;;;;;;;;;;;;2.59;77.88;99809.03;4995264;28;20377;-70
2021/12/16 04:45:02;;;;;;;;;;;;;;;2.62;77.71;99815.72;4991971;28;20049;-70
2021/12/16 04:47:29;;;;;;;;;;;;;;;2.59;78.10;99809.03;4997598;28;20381;-70
2021/12/16 04:49:55;;;;;;;;;;;;;;;2.58;77.44;99809.25;5002935;28;19918;-70
2021/12/16 04:52:20;;;;;;;;;;;;;;;2.57;78.28;99811.06;5005274;28;19926;-70
2021/12/16 04:54:46;;;;;;;;;;;;;;;2.57;77.83;99811.06;5005223;28;19917;-70
2021/12/16 04:57:12;;;;;;;;;;;;;;;2.56;77.56;99815.53;4996321;28;20013;-71
2021/12/16 04:59:37;;;;;;;;;;;;;;;2.55;77.96;99818.34;4985533;28;19921;-69
2021/12/16 05:02:06;;;;;;;;;;;;;;;2.55;77.91;99821.81;4997978;28;19913;-70
2021/12/16 05:04:31;;;;;;;;;;;;;;;2.53;77.80;99823.84;5011588;28;19967;-71
2021/12/16 05:06:56;;;;;;;;;;;;;;;2.53;77.30;99823.06;4993521;28;20307;-70
2021/12/16 05:10:05;;;;;;;;;;;;;;;2.54;78.05;99822.03;5013114;28;20444;-70
2021/12/16 05:12:16;;;;;;;;;;;;;;;2.55;78.10;99819.19;5005970;28;19952;-72
2021/12/16 05:14:42;;;;;;;;;;;;;;;2.56;77.52;99822.63;5007897;28;20008;-71
2021/12/16 05:17:22;;;;;;;;;;;;;;;2.57;78.11;99813.69;5002060;28;19925;-71
2021/12/16 05:19:50;;;;;;;;;;;;;;;2.59;77.99;99818.75;5009002;28;19924;-70
2021/12/16 05:25:00;;;;;;;;;;;;;;;2.61;77.68;99827.31;4998054;28;19963;-70
2021/12/16 05:27:25;;;;;;;;;;;;;;;2.63;77.63;99822.63;5007485;28;20524;-72
2021/12/16 05:29:50;;;;;;;;;;;;;;;2.62;77.57;99818.38;5006961;28;19983;-70
2021/12/16 05:32:16;;;;;;;;;;;;;;;2.62;77.77;99821.00;5001099;28;20024;-72
2021/12/16 05:34:42;;;;;;;;;;;;;;;2.62;77.36;99821.00;4994521;28;19914;-70
2021/12/16 05:37:08;;;;;;;;;;;;;;;2.63;77.14;99823.44;4994890;28;19996;-70
2021/12/16 05:39:33;;;;;;;;;;;;;;;2.65;77.04;99823.22;4993323;28;19917;-70
2021/12/16 05:41:58;;;;;;;;;;;;;;;2.67;77.09;99815.91;4994405;28;19964;-70
2021/12/16 05:44:24;;;;;;;;;;;;;;;2.69;77.07;99824.47;4995212;28;19914;-71
2021/12/16 05:46:49;;;;;;;;;;;;;;;2.69;76.18;99821.81;4994760;28;19914;-70
2021/12/16 05:49:15;;;;;;;;;;;;;;;2.69;76.22;99819.19;4994897;28;20009;-72
2021/12/16 05:51:42;;;;;;;;;;;;;;;2.66;75.94;99828.31;4977474;28;20013;-71
2021/12/16 05:54:08;;;;;;;;;;;;;;;2.66;76.38;99822.22;4995025;28;19913;-71
2021/12/16 05:56:34;;;;;;;;;;;;;;;2.65;76.56;99817.94;4977529;28;19918;-71
2021/12/16 05:58:59;;;;;;;;;;;;;;;2.65;76.25;99818.78;4994783;28;19913;-71
2021/12/16 06:01:26;;;;;;;;;;;;;;;2.65;76.31;99818.78;4995241;28;19913;-71
2021/12/16 06:03:53;;;;;;;;;;;;;;;2.66;76.26;99820.41;4994773;28;19971;-70
2021/12/16 06:06:18;;;;;;;;;;;;;;;2.68;75.91;99821.00;4994776;28;19918;-71
2021/12/16 06:08:45;;;;;;;;;;;;;;;2.68;76.06;99820.19;4994190;28;19920;-70
2021/12/16 06:11:24;;;;;;;;;;;;;;;2.69;75.94;99819.19;4994763;28;19914;-70
2021/12/16 06:27:26;;;;;;;;;;;;;;;2.75;75.39;99802.50;4994633;28;19985;-71
2021/12/16 06:29:51;;;;;;;;;;;;;;;2.76;75.28;99816.50;4994197;28;19917;-70
2021/12/16 06:32:18;;;;;;;;;;;;;;;2.77;75.61;99812.84;4994431;28;20301;-71
2021/12/16 06:34:43;;;;;;;;;;;;;;;2.79;75.40;99818.75;4994237;28;19914;-71
2021/12/16 06:37:09;;;;;;;;;;;;;;;2.78;75.10;99820.56;4994351;28;19914;-70
2021/12/16 06:39:34;;;;;;;;;;;;;;;2.78;75.02;99825.84;4994059;28;19973;-70
2021/12/16 06:41:59;;;;;;;;;;;;;;;2.78;75.06;99823.22;4994043;28;20103;-70
2021/12/16 06:44:31;;;;;;;;;;;;;;;2.78;74.98;99822.41;4992963;28;19921;-70
2021/12/16 06:47:02;;;;;;;;;;;;;;;2.78;74.83;99832.97;4994162;28;19969;-70
2021/12/16 06:49:29;;;;;;;;;;;;;;;2.78;75.07;99822.41;4994039;28;19913;-71
2021/12/16 06:52:00;;;;;;;;;;;;;;;2.79;74.86;99824.03;4993870;28;20374;-70
2021/12/16 06:54:34;;;;;;;;;;;;;;;2.79;74.58;99821.41;4993007;28;20285;-70
2021/12/16 06:57:22;;;;;;;;;;;;;;;2.79;75.21;99816.91;4993505;28;20377;-71
2021/12/16 06:59:54;;;;;;;;;;;;;;;2.79;74.66;99818.75;4993779;28;20077;-70
2021/12/16 07:02:35;;;;;;;;;;;;;;;2.78;74.13;99817.13;4993964;28;19937;-70
2021/12/16 07:05:00;;;;;;;;;;;;;;;2.75;74.29;99817.53;4976280;28;20292;-71
2021/12/16 07:07:25;;;;;;;;;;;;;;;2.76;74.70;99827.06;4993423;28;19925;-71
2021/12/16 07:09:50;;;;;;;;;;;;;;;2.76;74.22;99835.84;4993448;28;19914;-71
2021/12/16 07:12:24;;;;;;;;;;;;;;;2.78;74.61;99830.34;4993472;28;19948;-71
2021/12/16 07:14:49;;;;;;;;;;;;;;;2.77;74.51;99829.53;4976005;28;20376;-71
2021/12/16 07:17:16;;;;;;;;;;;;;;;2.78;74.13;99825.84;4993656;28;19914;-70
2021/12/16 07:19:43;;;;;;;;;;;;;;;2.81;74.80;99830.75;4993318;28;19914;-70
2021/12/16 07:22:09;;;;;;;;;;;;;;;2.82;74.36;99834.19;4975948;28;19918;-70
2021/12/16 07:24:34;;;;;;;;;;;;;;;2.85;74.52;99828.50;4993476;28;20408;-70
2021/12/16 07:26:59;;;;;;;;;;;;;;;2.85;74.35;99828.50;4993265;28;19914;-70
2021/12/16 07:29:25;;;;;;;;;;;;;;;2.87;74.48;99834.41;4993327;28;19914;-70
2021/12/16 07:31:51;;;;;;;;;;;;;;;2.86;73.73;99840.69;4992483;28;19924;-70
2021/12/16 07:34:16;;;;;;;;;;;;;;;2.81;74.03;99835.22;4993639;28;19913;-70
2021/12/16 07:36:43;;;;;;;;;;;;;;;2.89;73.84;99840.28;4993187;28;19920;-70
2021/12/16 07:39:10;;;;;;;;;;;;;;;2.94;74.09;99839.66;4993159;28;19913;-70
2021/12/16 07:41:38;;;;;;;;;;;;;;;2.94;73.57;99844.94;4993079;28;19977;-70
2021/12/16 07:44:10;;;;;;;;;;;;;;;2.94;73.93;99843.13;4993184;28;19964;-70
2021/12/16 07:46:44;;;;;;;;;;;;;;;2.98;74.05;99857.53;4975471;28;20397;-70
2021/12/16 07:49:11;;;;;;;;;;;;;;;3.00;73.77;99850.22;4992970;28;20416;-72
2021/12/16 07:51:38;;;;;;;;;;;;;;;3.02;73.57;99848.19;4993259;28;19914;-71
2021/12/16 07:54:03;;;;;;;;;;;;;;;3.05;73.56;99839.03;4992907;28;19913;-72
2021/12/16 07:56:29;;;;;;;;;;;;;;;3.09;73.76;99850.81;4992893;28;19921;-71
2021/12/16 07:58:54;;;;;;;;;;;;;;;3.15;73.75;99851.81;4992646;28;20301;-72
2021/12/16 08:01:20;;;;;;;;;;;;;;;3.19;73.56;99850.38;4992859;28;20024;-71
2021/12/16 08:03:45;;;;;;;;;;;;;;;3.19;73.03;99845.91;4992572;28;19992;-71
2021/12/16 08:06:13;;;;;;;;;;;;;;;3.22;72.95;99855.25;4992645;28;19921;-71
2021/12/16 08:08:38;;;;;;;;;;;;;;;3.26;73.38;99843.25;4975113;28;20512;-72
2021/12/16 08:11:05;;;;;;;;;;;;;;;3.28;72.97;99859.69;4992414;28;19924;-72
2021/12/16 08:13:30;;;;;;;;;;;;;;;3.28;72.93;99851.78;4992588;28;19913;-72
2021/12/16 08:15:55;;;;;;;;;;;;;;;3.31;72.72;99855.84;4992300;28;19920;-72
2021/12/16 08:18:21;;;;;;;;;;;;;;;3.33;73.03;99853.78;4992523;28;19971;-69
2021/12/16 08:20:46;;;;;;;;;;;;;;;3.35;72.93;99849.13;4992341;28;19913;-71
2021/12/16 08:23:12;;;;;;;;;;;;;;;3.36;72.30;99856.84;4992446;28;19941;-71
2021/12/16 08:25:37;;;;;;;;;;;;;;;3.38;73.02;99850.53;4974986;28;19952;-70
2021/12/16 08:28:04;;;;;;;;;;;;;;;3.40;72.94;99851.16;4992198;28;19921;-72
2021/12/16 08:30:31;;;;;;;;;;;;;;;3.42;72.73;99849.09;4992357;28;19914;-71
2021/12/16 08:32:57;;;;;;;;;;;;;;;3.43;72.48;99856.00;4992116;28;20381;-72
2021/12/16 08:35:22;;;;;;;;;;;;;;;3.46;72.94;99851.09;4991132;28;19920;-71
2021/12/16 08:37:47;;;;;;;;;;;;;;;3.49;72.93;99852.53;4992007;28;19913;-71
2021/12/16 08:40:17;;;;;;;;;;;;;;;3.51;72.43;99848.66;4992284;28;20389;-71
2021/12/16 08:42:43;;;;;;;;;;;;;;;3.53;72.51;99848.44;4974464;28;19993;-71
2021/12/16 08:45:10;;;;;;;;;;;;;;;3.55;72.55;99856.16;4991987;28;19965;-71
2021/12/16 08:47:35;;;;;;;;;;;;;;;3.57;72.97;99847.00;4992067;28;19963;-72
2021/12/16 08:50:01;;;;;;;;;;;;;;;3.60;73.16;99857.19;4990656;28;19917;-72
2021/12/16 08:52:27;;;;;;;;;;;;;;;3.64;73.18;99854.94;4991948;28;20045;-70
2021/12/16 08:54:52;;;;;;;;;;;;;;;3.70;73.17;99854.09;4992232;28;20369;-73
2021/12/16 08:57:18;;;;;;;;;;;;;;;3.74;72.60;99859.75;4992131;28;19914;-72
2021/12/16 08:59:44;;;;;;;;;;;;;;;3.78;72.77;99853.81;4974932;28;19914;-70
2021/12/16 09:02:10;;;;;;;;;;;;;;;3.82;72.90;99852.38;4991826;28;19918;-70
2021/12/16 09:04:36;;;;;;;;;;;;;;;3.88;73.00;99850.72;4992163;28;19914;-70
2021/12/16 09:07:03;;;;;;;;;;;;;;;3.93;72.74;99852.72;4991853;28;19925;-71
2021/12/16 09:09:33;;;;;;;;;;;;;;;3.98;72.90;99848.44;4991731;28;19961;-72
2021/12/16 09:12:10;;;;;;;;;;;;;;;4.04;72.93;99844.13;4991770;28;20000;-69
2021/12/16 09:14:37;;;;;;;;;;;;;;;4.09;72.72;99846.94;4992041;28;19913;-72
2021/12/16 09:17:09;;;;;;;;;;;;;;;4.16;72.34;99846.91;4974187;28;20277;-72
2021/12/16 09:19:36;;;;;;;;;;;;;;;4.19;72.05;99849.13;4991898;28;20293;-70
2021/12/16 09:22:01;;;;;;;;;;;;;;;4.19;72.24;99840.34;4991655;28;19963;-71
2021/12/16 09:24:28;;;;;;;;;;;;;;;4.22;72.79;99840.75;4991864;28;19914;-71
2021/12/16 09:26:53;;;;;;;;;;;;;;;4.27;72.02;99838.28;4991950;28;19914;-72
2021/12/16 09:29:19;;;;;;;;;;;;;;;4.29;72.07;99838.84;4991699;28;19921;-71
2021/12/16 09:31:44;;;;;;;;;;;;;;;4.31;72.57;99834.16;4992096;28;20305;-71
2021/12/16 09:34:09;;;;;;;;;;;;;;;4.39;72.31;99827.00;4991293;28;20392;-71
2021/12/16 09:36:37;;;;;;;;;;;;;;;4.42;72.48;99829.19;4991423;28;20012;-72
2021/12/16 09:39:07;;;;;;;;;;;;;;;4.42;71.15;99822.06;4990580;28;19914;-71
2021/12/16 09:41:32;;;;;;;;;;;;;;;4.42;71.68;99821.25;4991724;28;19918;-71
2021/12/16 09:43:59;;;;;;;;;;;;;;;4.44;72.53;99817.38;4991470;28;20333;-72
2021/12/16 09:46:26;;;;;;;;;;;;;;;4.43;72.21;99810.47;4974219;28;19914;-72
2021/12/16 09:48:52;;;;;;;;;;;;;;;4.46;71.86;99806.56;4990845;28;19918;-72
2021/12/16 09:51:22;;;;;;;;;;;;;;;4.48;72.06;99817.75;4991621;28;19920;-71
2021/12/16 09:53:48;;;;;;;;;;;;;;;4.46;71.43;99802.06;4991597;28;19914;-71
2021/12/16 09:56:14;;;;;;;;;;;;;;;4.46;71.94;99807.34;4994409;28;19972;-71
2021/12/16 09:58:41;;;;;;;;;;;;;;;4.45;72.19;99803.09;4995020;28;19913;-71
2021/12/16 10:01:09;;;;;;;;;;;;;;;4.48;72.01;99800.00;4994758;28;19980;-71
2021/12/16 10:03:35;;;;;;;;;;;;;;;4.50;71.76;99786.53;4995010;28;20020;-72
2021/12/16 10:06:00;;;;;;;;;;;;;;;4.52;72.04;99788.97;4994669;28;19996;-71
2021/12/16 10:08:26;;;;;;;;;;;;;;;4.54;71.41;99776.31;4994926;28;19920;-71
2021/12/16 10:10:51;;;;;;;;;;;;;;;4.50;72.12;99775.94;4993336;28;19913;-71
2021/12/16 10:13:23;;;;;;;;;;;;;;;4.50;71.79;99775.94;4995148;28;19913;-71
2021/12/16 10:18:29;;;;;;;;;;;;;;;4.52;72.47;99775.72;4994730;28;19914;-72
2021/12/16 10:20:56;;;;;;;;;;;;;;;4.59;72.70;99774.66;4994378;28;19936;-72
2021/12/16 10:23:29;;;;;;;;;;;;;;;4.61;72.64;99766.47;4994638;28;19972;-71
2021/12/16 10:25:56;;;;;;;;;;;;;;;4.66;71.87;99766.63;4976925;28;20388;-72
2021/12/16 10:28:25;;;;;;;;;;;;;;;4.68;72.20;99761.13;4994382;28;19918;-70
2021/12/16 10:30:58;;;;;;;;;;;;;;;4.72;72.04;99763.09;4994556;28;19953;-71
2021/12/16 10:33:26;;;;;;;;;;;;;;;4.77;72.78;99757.16;4994440;28;19913;-70
2021/12/16 10:36:00;;;;;;;;;;;;;;;4.79;72.64;99750.59;4994165;28;19963;-71
2021/12/16 10:38:26;;;;;;;;;;;;;;;4.85;72.62;99748.13;4993994;28;19914;-71
2021/12/16 10:40:52;;;;;;;;;;;;;;;4.89;72.48;99744.78;4994228;28;20300;-71
2021/12/16 10:43:40;;;;;;;;;;;;;;;4.94;72.39;99746.78;4976837;28;19914;-71
2021/12/16 10:46:10;;;;;;;;;;;;;;;4.97;72.39;99739.19;4976468;28;19971;-70
2021/12/16 10:48:39;;;;;;;;;;;;;;;5.01;72.73;99730.81;4993880;28;20403;-71
2021/12/16 10:51:04;;;;;;;;;;;;;;;5.07;72.50;99743.16;4993654;28;19913;-71
2021/12/16 10:53:48;;;;;;;;;;;;;;;5.07;72.19;99735.22;4994411;28;20369;-71
2021/12/16 10:56:14;;;;;;;;;;;;;;;5.13;71.99;99734.31;4993817;28;19917;-71
2021/12/16 10:58:57;;;;;;;;;;;;;;;5.17;71.72;99737.34;4976424;28;20440;-71
2021/12/16 11:01:31;;;;;;;;;;;;;;;5.17;71.34;99730.19;4993942;28;19921;-71
2021/12/16 11:03:56;;;;;;;;;;;;;;;5.20;71.10;99735.06;4992345;28;20329;-71
2021/12/16 11:06:26;;;;;;;;;;;;;;;5.23;71.64;99741.75;4992607;28;20016;-70
2021/12/16 11:08:51;;;;;;;;;;;;;;;5.24;71.04;99738.88;4993770;28;19917;-70
2021/12/16 11:11:16;;;;;;;;;;;;;;;5.29;71.86;99738.22;4993304;28;20400;-72
2021/12/16 11:13:42;;;;;;;;;;;;;;;5.32;71.39;99743.03;4993703;28;19914;-71
2021/12/16 11:16:07;;;;;;;;;;;;;;;5.38;71.23;99736.03;4993361;28;20309;-72
2021/12/16 11:18:34;;;;;;;;;;;;;;;5.34;70.71;99738.34;4993519;28;19969;-71
2021/12/16 11:21:02;;;;;;;;;;;;;;;5.41;71.33;99739.06;4992070;28;19921;-72
2021/12/16 11:23:35;;;;;;;;;;;;;;;5.45;71.20;99739.41;4993444;28;19914;-72
2021/12/16 11:26:00;;;;;;;;;;;;;;;5.52;70.63;99739.34;4993363;28;19914;-71
2021/12/16 11:28:31;;;;;;;;;;;;;;;5.56;70.68;99740.50;4993436;28;20055;-71
2021/12/16 11:30:57;;;;;;;;;;;;;;;5.56;70.35;99735.19;4993103;28;19920;-71
2021/12/16 11:33:22;;;;;;;;;;;;;;;5.61;70.90;99735.31;4993224;28;20004;-72
2021/12/16 11:35:53;;;;;;;;;;;;;;;5.65;71.40;99733.84;4992980;28;19921;-72
2021/12/16 11:38:22;;;;;;;;;;;;;;;5.70;70.85;99726.00;4993108;28;19914;-71
2021/12/16 11:40:51;;;;;;;;;;;;;;;5.73;70.42;99717.59;4993219;28;19936;-70
2021/12/16 11:43:17;;;;;;;;;;;;;;;5.74;71.09;99726.38;4992973;28;19975;-72
2021/12/16 11:45:42;;;;;;;;;;;;;;;5.79;70.68;99728.34;4993100;28;20396;-72
2021/12/16 11:48:07;;;;;;;;;;;;;;;5.77;70.57;99720.59;4992930;28;20388;-72
2021/12/16 11:50:40;;;;;;;;;;;;;;;5.82;70.02;99722.56;4991767;28;20373;-72
2021/12/16 11:53:06;;;;;;;;;;;;;;;5.84;70.86;99731.13;4992704;28;19914;-72
2021/12/16 11:55:33;;;;;;;;;;;;;;;5.85;70.48;99720.28;4993157;28;19914;-72
2021/12/16 11:58:03;;;;;;;;;;;;;;;5.86;70.40;99724.56;4992631;28;19920;-71
2021/12/16 12:00:30;;;;;;;;;;;;;;;5.88;70.37;99722.50;4992768;28;19921;-72
2021/12/16 12:02:59;;;;;;;;;;;;;;;5.89;70.43;99718.78;4975287;28;20020;-72
2021/12/16 12:05:25;;;;;;;;;;;;;;;5.89;70.96;99723.28;4975050;28;19913;-72
2021/12/16 12:07:52;;;;;;;;;;;;;;;5.86;71.39;99721.06;4992414;28;19918;-72
2021/12/16 12:10:36;;;;;;;;;;;;;;;5.84;71.32;99720.50;4992373;28;20305;-72
2021/12/16 12:13:07;;;;;;;;;;;;;;;5.82;72.14;99720.72;4992019;28;20286;-72
2021/12/16 12:15:33;;;;;;;;;;;;;;;5.81;72.67;99721.78;4992402;28;19924;-72
2021/12/16 12:17:58;;;;;;;;;;;;;;;5.84;72.08;99721.31;4974611;28;19918;-70
2021/12/16 12:20:27;;;;;;;;;;;;;;;5.83;72.71;99718.88;4992454;28;20008;-72
2021/12/16 12:22:53;;;;;;;;;;;;;;;5.80;72.29;99724.63;4992367;28;19913;-70
2021/12/16 12:25:19;;;;;;;;;;;;;;;5.75;72.83;99736.75;4974614;28;20377;-72
2021/12/16 12:27:44;;;;;;;;;;;;;;;5.71;73.46;99724.16;4992147;28;20016;-72
2021/12/16 12:30:10;;;;;;;;;;;;;;;5.69;73.72;99734.19;4992095;28;20012;-69
2021/12/16 12:32:43;;;;;;;;;;;;;;;5.66;73.77;99729.34;4974617;28;19913;-70
2021/12/16 12:35:12;;;;;;;;;;;;;;;5.59;73.57;99729.41;4992279;28;19949;-70
2021/12/16 12:37:39;;;;;;;;;;;;;;;5.55;74.21;99734.38;4990963;28;19992;-70
2021/12/16 12:40:04;;;;;;;;;;;;;;;5.51;74.83;99725.25;4991665;28;19913;-71
2021/12/16 12:42:30;;;;;;;;;;;;;;;5.52;75.04;99729.53;4992232;28;19925;-70
2021/12/16 12:44:55;;;;;;;;;;;;;;;5.51;74.78;99735.06;4990832;28;19913;-71
2021/12/16 12:47:23;;;;;;;;;;;;;;;5.45;75.01;99729.59;4991856;28;19918;-71
2021/12/16 12:49:48;;;;;;;;;;;;;;;5.45;76.05;99724.31;4992110;28;20027;-71
2021/12/16 12:52:15;;;;;;;;;;;;;;;5.48;75.87;99732.84;4991662;28;20416;-71
2021/12/16 12:54:43;;;;;;;;;;;;;;;5.49;75.54;99732.63;4992001;28;20301;-71
2021/12/16 12:57:37;;;;;;;;;;;;;;;5.52;75.23;99734.84;4991818;28;19914;-72
2021/12/16 13:00:05;;;;;;;;;;;;;;;5.54;75.50;99738.09;4978804;28;19914;-71
2021/12/16 13:02:34;;;;;;;;;;;;;;;5.57;76.21;99732.31;4991613;28;19914;-71
2021/12/16 13:05:03;;;;;;;;;;;;;;;5.56;76.13;99733.34;4992019;28;19945;-71
2021/12/16 13:07:34;;;;;;;;;;;;;;;5.57;76.82;99732.31;4973964;28;19987;-71
2021/12/16 13:10:02;;;;;;;;;;;;;;;5.56;75.69;99729.88;4991921;28;19914;-71
2021/12/16 13:12:36;;;;;;;;;;;;;;;5.57;76.94;99731.50;4991675;28;19956;-71
2021/12/16 13:15:13;;;;;;;;;;;;;;;5.55;76.35;99730.91;4991566;28;19925;-71
2021/12/16 13:31:06;;;;;;;;;;;;;;;5.35;74.47;99732.00;4994608;28;19914;-71
2021/12/16 13:33:37;;;;;;;;;;;;;;;5.32;75.57;99736.94;4995221;28;19969;-71
2021/12/16 13:36:15;;;;;;;;;;;;;;;5.27;75.03;99727.81;4995355;28;19917;-71
2021/12/16 13:38:43;;;;;;;;;;;;;;;5.23;74.47;99733.78;4995486;28;19918;-71
2021/12/16 13:41:27;;;;;;;;;;;;;;;5.21;75.04;99727.91;4995171;28;19914;-71
2021/12/16 13:44:03;;;;;;;;;;;;;;;5.20;75.05;99736.88;4995429;28;19956;-72
2021/12/16 13:46:41;;;;;;;;;;;;;;;5.18;75.74;99731.00;4995269;28;19941;-71
2021/12/16 14:03:43;;;;;;;;;;;;;;;4.87;77.50;99736.25;4994835;28;19926;-71
2021/12/16 14:06:10;;;;;;;;;;;;;;;4.83;77.47;99732.41;4992617;28;19917;-71
2021/12/16 14:08:47;;;;;;;;;;;;;;;4.78;77.77;99732.28;4994869;28;20421;-71
2021/12/16 14:14:40;;;;;;;;;;;;;;;4.71;78.46;99734.19;4994389;28;20392;-71
2021/12/16 14:17:15;;;;;;;;;;;;;;;4.69;79.68;99730.94;4994536;28;19920;-71
2021/12/16 14:38:51;;;;;;;;;;;;;;;4.38;83.90;99722.06;4994259;28;20008;-71
2021/12/16 14:41:37;;;;;;;;;;;;;;;4.31;84.14;99722.94;4993511;28;19914;-71
2021/12/16 14:44:18;;;;;;;;;;;;;;;4.28;84.57;99720.72;4994165;28;20380;-71
2021/12/16 14:47:02;;;;;;;;;;;;;;;4.25;85.07;99723.03;4994183;28;19975;-71
2021/12/16 14:49:32;;;;;;;;;;;;;;;4.19;85.79;99729.16;4976519;28;19921;-71
2021/12/16 14:51:59;;;;;;;;;;;;;;;4.15;86.07;99724.31;4993974;28;19913;-70
2021/12/16 14:54:25;;;;;;;;;;;;;;;4.12;86.66;99718.63;4993821;28;20518;-70
2021/12/16 14:56:57;;;;;;;;;;;;;;;4.09;86.39;99727.81;4993804;28;20004;-70
2021/12/16 14:59:25;;;;;;;;;;;;;;;4.06;86.70;99728.25;4976247;28;19913;-70
2021/12/16 15:01:53;;;;;;;;;;;;;;;4.01;86.43;99726.25;4993831;28;20011;-70
2021/12/16 15:04:23;;;;;;;;;;;;;;;4.01;86.92;99722.78;4993723;28;19949;-71
2021/12/16 15:06:55;;;;;;;;;;;;;;;3.97;86.56;99730.34;4993981;28;19917;-71
2021/12/16 15:09:28;;;;;;;;;;;;;;;3.96;86.63;99730.59;4993573;28;19917;-71
2021/12/16 15:12:20;;;;;;;;;;;;;;;3.94;87.45;99724.69;4997597;28;20004;-69
2021/12/16 15:17:26;;;;;;;;;;;;;;;3.88;87.78;99736.13;5012978;28;20003;-70
2021/12/16 15:39:50;;;;;;;;;;;;;;;3.66;89.18;99752.34;5012689;28;19914;-69
2021/12/16 15:45:12;;;;;;;;;;;;;;;3.65;89.98;99746.25;4999393;28;20008;-69
2021/12/16 15:47:45;;;;;;;;;;;;;;;3.64;90.38;99744.63;4992938;28;19914;-69
2021/12/16 15:50:11;;;;;;;;;;;;;;;3.65;90.35;99748.91;5001558;28;20028;-70
2021/12/16 15:52:41;;;;;;;;;;;;;;;3.58;89.82;99740.19;5011583;28;20461;-70
2021/12/16 15:55:07;;;;;;;;;;;;;;;3.66;89.47;99749.69;4991553;28;19971;-71
2021/12/16 15:57:33;;;;;;;;;;;;;;;3.68;89.91;99756.41;4997556;28;19924;-74
2021/12/16 16:00:06;;;;;;;;;;;;;;;3.69;90.13;99758.00;4994848;28;19914;-76
2021/12/16 16:02:32;;;;;;;;;;;;;;;3.72;89.64;99753.34;4990417;28;19922;-75
2021/12/16 16:04:57;;;;;;;;;;;;;;;3.71;89.80;99752.53;4995158;28;19924;-75
2021/12/16 16:07:23;;;;;;;;;;;;;;;3.69;90.06;99751.94;4994227;28;20396;-74
2021/12/16 16:09:50;;;;;;;;;;;;;;;3.72;90.27;99756.78;4987834;28;20373;-74
2021/12/16 16:12:17;;;;;;;;;;;;;;;3.74;90.60;99757.38;4978631;28;19918;-72
2021/12/16 16:14:51;;;;;;;;;;;;;;;3.77;91.22;99761.44;4991241;28;19926;-75
2021/12/16 16:17:19;;;;;;;;;;;;;;;3.80;91.09;99756.53;4976673;28;19917;-73
2021/12/16 16:19:46;;;;;;;;;;;;;;;3.81;91.16;99760.81;4992475;28;20504;-73
2021/12/16 16:22:12;;;;;;;;;;;;;;;3.81;91.21;99763.44;5005264;28;19971;-82
2021/12/16 16:24:39;;;;;;;;;;;;;;;3.84;91.50;99765.69;4989551;28;20356;-74
2021/12/16 16:27:09;;;;;;;;;;;;;;;3.89;91.46;99765.00;4976351;28;19917;-75
2021/12/16 16:29:35;;;;;;;;;;;;;;;3.91;91.46;99770.91;4976254;28;20016;-73
2021/12/16 16:32:01;;;;;;;;;;;;;;;3.96;91.57;99764.97;4986547;28;19925;-74
2021/12/16 16:34:39;;;;;;;;;;;;;;;3.99;91.43;99767.19;5008458;28;19914;-77
2021/12/16 16:37:05;;;;;;;;;;;;;;;4.03;91.29;99776.34;4974632;28;19924;-75
2021/12/16 16:39:32;;;;;;;;;;;;;;;4.06;91.25;99773.25;4975195;28;19972;-74
2021/12/16 16:42:03;;;;;;;;;;;;;;;4.09;91.38;99778.13;4981330;28;19918;-72
2021/12/16 16:44:29;;;;;;;;;;;;;;;4.11;91.36;99775.25;5003408;28;19917;-78
2021/12/16 16:47:00;;;;;;;;;;;;;;;4.14;91.08;99774.84;4986856;28;20005;-73
2021/12/16 16:49:27;;;;;;;;;;;;;;;4.16;91.40;99783.34;5000938;28;19924;-72
2021/12/16 16:51:54;;;;;;;;;;;;;;;4.19;91.25;99785.59;4974520;28;20307;-70
2021/12/16 16:54:28;;;;;;;;;;;;;;;4.21;91.11;99783.53;4991953;28;19929;-74
2021/12/16 16:56:54;;;;;;;;;;;;;;;4.23;91.31;99788.63;4996626;28;19925;-72
2021/12/16 16:59:25;;;;;;;;;;;;;;;4.24;91.36;99783.09;4993256;28;20298;-71
2021/12/16 17:01:50;;;;;;;;;;;;;;;4.24;91.07;99779.66;5003168;28;19913;-73